Bloomington, Wisconsin
Current Conditions -  °F | °C
As of 4:15 PM on Monday 26 Jan 2015 (Local Time) from KPDC Reporting Station
Haze Haze  
Wind Chill: 24°   Ceiling: 1600
Heat Index: 29°   Visibility: 5mi
Dew Point: 25°   Wind: 5mph
Humidity: 86%   Direction: 100°E
Pressure: 29.8"   Gusts: NA
Location:  42.89°N, 90.92°W
Report Text: KPDC 262215Z AUTO 10004KT 5SM BR OVC016 M02/M04 A2980 RMK AO2 T10181039
Loading
Personal Weather Stations






























Interactive Weather Map New forecast layout! Learn more

10-Day Weather Forecast

Advertisements
Track Severe Weather on mobile